Time;durP1;ratioP1;P1;durP2;ratioP2;P2;SDS_P1;SDS_P2;PMS_P1;PMS_P2;Temp;Humidity;BMP_temperature;BMP_pressure;BME280_temperature;BME280_humidity;BME280_pressure;Samples;Min_cycle;Max_cycle;Signal;HPM_P1;HPM_P2
2024/01/17 00:00:23;;;;;;;8.77;6.20;;;-0.60;99.90;;;;;;5045545;28;20228;-78
2024/01/17 00:02:52;;;;;;;10.63;6.60;;;-0.60;99.90;;;;;;5039096;28;20213;-78
2024/01/17 00:05:20;;;;;;;9.40;6.00;;;-0.50;99.90;;;;;;5038798;28;20223;-78
2024/01/17 00:07:47;;;;;;;10.70;6.73;;;-0.60;99.90;;;;;;5047184;28;20645;-78
2024/01/17 00:10:14;;;;;;;7.87;6.43;;;-0.60;99.90;;;;;;5038058;28;20214;-78
2024/01/17 00:12:42;;;;;;;10.03;6.50;;;-0.70;99.90;;;;;;5037692;28;20198;-78
2024/01/17 00:15:10;;;;;;;11.27;6.27;;;-0.70;99.90;;;;;;5051722;28;20220;-78
2024/01/17 00:17:37;;;;;;;9.27;5.73;;;-0.60;99.90;;;;;;5069564;28;20205;-78
2024/01/17 00:20:08;;;;;;;8.93;6.37;;;-0.70;99.90;;;;;;5038309;28;20220;-78
2024/01/17 00:22:36;;;;;;;11.27;6.20;;;-0.70;99.90;;;;;;5042853;28;20200;-78
2024/01/17 00:25:05;;;;;;;8.67;6.63;;;-0.70;99.90;;;;;;5046599;28;20197;-78
2024/01/17 00:27:33;;;;;;;8.23;6.30;;;-0.70;99.90;;;;;;5071495;28;20529;-78
2024/01/17 00:30:00;;;;;;;9.27;6.27;;;-0.70;99.90;;;;;;5044610;28;20211;-78
2024/01/17 00:32:28;;;;;;;10.73;6.47;;;-0.70;99.90;;;;;;5048160;28;20679;-78
2024/01/17 00:34:57;;;;;;;20.47;7.83;;;-0.70;99.90;;;;;;5038524;28;20196;-78
2024/01/17 00:37:26;;;;;;;9.17;6.57;;;-0.80;99.90;;;;;;5036044;28;20222;-78
2024/01/17 00:39:53;;;;;;;9.33;7.07;;;-0.80;99.90;;;;;;5043528;28;20229;-78
2024/01/17 00:42:21;;;;;;;8.33;5.70;;;-0.70;99.90;;;;;;5038078;28;20210;-78
2024/01/17 00:44:48;;;;;;;8.50;6.73;;;-0.80;99.90;;;;;;5059270;28;20194;-78
2024/01/17 00:47:16;;;;;;;10.93;6.93;;;-0.80;99.90;;;;;;5041412;28;20216;-78
2024/01/17 00:49:43;;;;;;;9.07;7.10;;;-0.80;99.90;;;;;;5069034;28;20200;-78
2024/01/17 00:52:10;;;;;;;10.57;6.40;;;-0.80;99.90;;;;;;5037541;28;20200;-77
2024/01/17 00:54:39;;;;;;;8.50;6.90;;;-0.90;99.90;;;;;;5036226;28;20210;-78
2024/01/17 00:57:07;;;;;;;11.03;7.47;;;-0.80;99.90;;;;;;5070059;28;20198;-78
2024/01/17 00:59:34;;;;;;;9.03;6.83;;;-0.70;99.90;;;;;;5045285;28;20581;-78
2024/01/17 01:02:02;;;;;;;10.00;6.57;;;-0.60;99.90;;;;;;5042159;28;20216;-78
2024/01/17 01:04:30;;;;;;;8.33;6.70;;;-0.70;99.90;;;;;;5036127;28;20196;-78
2024/01/17 01:06:57;;;;;;;12.10;7.30;;;-0.80;99.90;;;;;;5043390;28;20569;-79
2024/01/17 01:09:25;;;;;;;10.30;6.73;;;-0.80;99.90;;;;;;5033967;28;20205;-78
2024/01/17 01:11:54;;;;;;;9.40;6.83;;;-0.90;99.90;;;;;;5065627;28;20224;-78
2024/01/17 01:14:21;;;;;;;9.97;7.40;;;-0.90;99.90;;;;;;5039179;28;20206;-78
2024/01/17 01:16:49;;;;;;;9.77;6.67;;;-0.90;99.90;;;;;;5037476;28;20214;-78
2024/01/17 01:19:19;;;;;;;9.60;6.30;;;-0.80;99.90;;;;;;5037162;28;20207;-78
2024/01/17 01:21:47;;;;;;;10.17;6.70;;;-0.80;99.90;;;;;;5075738;28;20225;-78
2024/01/17 01:24:14;;;;;;;10.67;6.77;;;-0.90;99.90;;;;;;5055374;28;20204;-78
2024/01/17 01:26:41;;;;;;;8.00;6.43;;;-0.90;99.90;;;;;;5066716;28;20204;-78
2024/01/17 01:29:10;;;;;;;10.97;7.13;;;-0.90;99.90;;;;;;5037187;28;20203;-78
2024/01/17 01:31:42;;;;;;;8.50;6.77;;;-0.80;99.90;;;;;;5077899;28;20219;-78
2024/01/17 01:34:09;;;;;;;8.40;6.53;;;-0.90;99.90;;;;;;5025023;28;20203;-78
2024/01/17 01:36:37;;;;;;;10.57;6.17;;;-0.90;99.90;;;;;;5044373;28;20669;-78
2024/01/17 01:39:04;;;;;;;9.53;6.43;;;-0.90;99.90;;;;;;5039355;28;20206;-78
2024/01/17 01:41:32;;;;;;;9.97;6.27;;;-0.80;99.90;;;;;;5040901;28;20704;-78
2024/01/17 01:43:59;;;;;;;11.10;6.80;;;-0.90;99.90;;;;;;5061332;28;20203;-78
2024/01/17 01:46:30;;;;;;;7.43;5.83;;;-0.90;99.90;;;;;;5040201;28;20204;-77
2024/01/17 01:48:59;;;;;;;9.30;5.90;;;-0.80;99.90;;;;;;5046341;28;20194;-78
2024/01/17 01:51:28;;;;;;;10.07;6.33;;;-0.80;99.90;;;;;;5051088;28;20235;-78
2024/01/17 01:53:59;;;;;;;13.23;6.30;;;-0.60;99.90;;;;;;5050973;28;20203;-78
2024/01/17 01:56:30;;;;;;;11.40;6.27;;;-0.70;99.90;;;;;;5048982;28;20196;-78
2024/01/17 01:58:59;;;;;;;7.90;6.03;;;-0.90;99.90;;;;;;5083940;28;20284;-78
2024/01/17 02:01:30;;;;;;;10.50;5.90;;;-0.80;99.90;;;;;;5067033;28;20214;-78
2024/01/17 02:03:59;;;;;;;8.20;6.00;;;-0.60;99.90;;;;;;5055139;28;20189;-78
2024/01/17 02:06:31;;;;;;;11.20;6.63;;;-0.70;99.90;;;;;;5035898;28;20206;-78
2024/01/17 02:08:59;;;;;;;9.40;5.77;;;-0.80;99.90;;;;;;5027664;28;20214;-78
2024/01/17 02:11:29;;;;;;;8.67;6.17;;;-0.80;99.90;;;;;;5061332;28;20228;-78
2024/01/17 02:13:56;;;;;;;8.30;6.27;;;-0.80;99.90;;;;;;5043531;28;20207;-78
2024/01/17 02:16:24;;;;;;;11.43;6.37;;;-0.90;99.90;;;;;;5036385;28;20205;-78
2024/01/17 02:18:53;;;;;;;9.13;5.40;;;-0.90;99.90;;;;;;5051688;28;20265;-78
2024/01/17 02:21:22;;;;;;;7.97;6.20;;;-0.90;99.90;;;;;;5037284;28;20221;-78
2024/01/17 02:23:51;;;;;;;8.90;5.80;;;-0.90;99.90;;;;;;5048029;28;20205;-78
2024/01/17 02:26:19;;;;;;;8.83;6.40;;;-1.00;99.90;;;;;;5040145;28;20208;-78
2024/01/17 02:28:46;;;;;;;9.93;6.40;;;-0.90;99.90;;;;;;5035660;28;20224;-78
2024/01/17 02:31:15;;;;;;;7.43;6.17;;;-1.00;99.90;;;;;;5035498;28;20218;-78
2024/01/17 02:33:44;;;;;;;11.23;5.97;;;-1.10;99.90;;;;;;5037002;28;20206;-78
2024/01/17 02:36:11;;;;;;;8.53;5.60;;;-1.10;99.90;;;;;;5037885;28;20204;-78
2024/01/17 02:38:39;;;;;;;8.27;6.03;;;-1.10;99.90;;;;;;5038419;28;20210;-78
2024/01/17 02:41:09;;;;;;;8.57;5.40;;;-1.20;99.90;;;;;;5049724;28;20226;-78
2024/01/17 02:43:36;;;;;;;9.90;6.20;;;-1.20;99.90;;;;;;5035404;28;20194;-77
2024/01/17 02:46:04;;;;;;;8.70;5.60;;;-1.10;99.90;;;;;;5035823;28;20664;-77
2024/01/17 02:48:32;;;;;;;8.47;6.03;;;-1.10;99.90;;;;;;5034840;28;20206;-77
2024/01/17 02:51:00;;;;;;;10.13;6.27;;;-1.20;99.90;;;;;;5050633;28;20316;-77
2024/01/17 02:53:27;;;;;;;7.57;5.53;;;-1.20;99.90;;;;;;5049675;28;20201;-77
2024/01/17 02:55:54;;;;;;;8.70;5.47;;;-1.20;99.90;;;;;;5052342;28;20661;-77
2024/01/17 02:58:23;;;;;;;6.70;5.47;;;-1.30;99.90;;;;;;5049105;28;20201;-77
2024/01/17 03:00:51;;;;;;;7.03;5.30;;;-1.30;99.90;;;;;;5043939;28;20217;-77
2024/01/17 03:03:18;;;;;;;8.63;6.07;;;-1.40;99.90;;;;;;5048647;28;20197;-77
2024/01/17 03:05:45;;;;;;;8.10;5.57;;;-1.30;99.90;;;;;;5041647;28;20195;-77
2024/01/17 03:08:13;;;;;;;8.83;6.00;;;-1.30;99.90;;;;;;5055312;28;20202;-77
2024/01/17 03:10:40;;;;;;;8.77;6.23;;;-1.30;99.90;;;;;;5045952;28;20225;-77
2024/01/17 03:13:12;;;;;;;11.33;7.00;;;-1.30;99.90;;;;;;5058750;28;20199;-77
2024/01/17 03:15:40;;;;;;;9.90;6.10;;;-1.30;99.90;;;;;;5037954;28;20195;-77
2024/01/17 03:18:13;;;;;;;8.73;6.43;;;-1.30;99.90;;;;;;5060759;28;20190;-77
2024/01/17 03:20:41;;;;;;;8.70;5.83;;;-1.20;99.90;;;;;;5040867;28;20218;-77
2024/01/17 03:23:08;;;;;;;9.23;5.67;;;-1.30;99.90;;;;;;5052455;28;20202;-77
2024/01/17 03:25:36;;;;;;;9.53;6.50;;;-1.20;99.90;;;;;;5062004;28;20190;-77
2024/01/17 03:28:14;;;;;;;7.60;5.93;;;-1.30;99.90;;;;;;5037222;28;20195;-77
2024/01/17 03:30:43;;;;;;;8.50;6.83;;;-1.30;99.90;;;;;;5043666;28;20216;-78
2024/01/17 03:33:11;;;;;;;9.47;6.50;;;-1.30;99.90;;;;;;5040793;28;20238;-78
2024/01/17 03:35:38;;;;;;;8.33;5.97;;;-1.30;99.90;;;;;;5040893;28;20195;-78
2024/01/17 03:38:06;;;;;;;9.17;6.10;;;-1.30;99.90;;;;;;5069834;28;20544;-77
2024/01/17 03:40:33;;;;;;;7.77;5.93;;;-1.30;99.90;;;;;;5043966;28;20229;-78
2024/01/17 03:43:00;;;;;;;10.73;6.43;;;-1.30;99.90;;;;;;5043657;28;20207;-77
2024/01/17 03:45:28;;;;;;;9.77;6.57;;;-1.30;99.90;;;;;;5044777;28;20258;-78
2024/01/17 03:47:56;;;;;;;10.37;6.93;;;-1.40;99.90;;;;;;5043468;28;20195;-78
2024/01/17 03:50:24;;;;;;;10.00;6.77;;;-1.30;99.90;;;;;;5044556;28;20394;-78
2024/01/17 03:52:51;;;;;;;9.37;6.97;;;-1.40;99.90;;;;;;5038632;28;20197;-78
2024/01/17 03:55:19;;;;;;;10.47;6.77;;;-1.40;99.90;;;;;;5039273;28;20198;-78
2024/01/17 03:57:47;;;;;;;10.47;6.63;;;-1.40;99.90;;;;;;5040072;28;20203;-78
2024/01/17 04:00:16;;;;;;;11.47;7.43;;;-1.50;99.90;;;;;;5037655;28;20218;-78
2024/01/17 04:02:43;;;;;;;10.77;6.87;;;-1.50;99.90;;;;;;5074409;28;20210;-77
2024/01/17 04:05:12;;;;;;;12.10;7.07;;;-1.50;99.90;;;;;;5053945;28;20216;-77
2024/01/17 04:07:39;;;;;;;9.47;6.80;;;-1.50;99.90;;;;;;5062145;28;20194;-77
2024/01/17 04:10:08;;;;;;;11.53;6.60;;;-1.50;99.90;;;;;;5064692;28;20225;-78
2024/01/17 04:12:49;;;;;;;11.00;6.53;;;-1.50;99.90;;;;;;5055852;28;20194;-78
2024/01/17 04:15:17;;;;;;;11.57;6.87;;;-1.50;99.90;;;;;;5036903;28;20256;-77
2024/01/17 04:17:44;;;;;;;11.57;6.93;;;-1.50;99.90;;;;;;5047898;28;20197;-77
2024/01/17 04:20:14;;;;;;;10.57;6.63;;;-1.50;99.90;;;;;;5053319;28;20226;-78
2024/01/17 04:22:41;;;;;;;11.83;7.47;;;-1.50;99.90;;;;;;5037911;28;20206;-77
2024/01/17 04:25:09;;;;;;;9.07;6.33;;;-1.50;99.90;;;;;;5037139;28;20210;-77
2024/01/17 04:27:37;;;;;;;12.00;7.60;;;-1.50;99.90;;;;;;5050921;28;20206;-77
2024/01/17 04:30:06;;;;;;;8.50;7.10;;;-1.50;99.90;;;;;;5038132;28;20215;-77
2024/01/17 04:32:33;;;;;;;9.30;7.33;;;-1.50;99.90;;;;;;5070324;28;20542;-78
2024/01/17 04:35:01;;;;;;;10.20;7.67;;;-1.40;99.90;;;;;;5061971;23;20233;-76
2024/01/17 04:37:29;;;;;;;11.10;7.23;;;-1.40;99.90;;;;;;5032368;28;20199;-77
2024/01/17 04:39:57;;;;;;;9.57;6.93;;;-1.30;99.90;;;;;;5034192;28;20195;-76
2024/01/17 04:42:25;;;;;;;13.97;7.90;;;-1.30;99.90;;;;;;5031741;28;20233;-77
2024/01/17 04:44:52;;;;;;;11.60;8.33;;;-1.30;99.90;;;;;;5030050;28;20606;-77
2024/01/17 04:47:20;;;;;;;11.17;7.50;;;-1.30;99.90;;;;;;5029380;28;20195;-77
2024/01/17 04:49:47;;;;;;;12.60;7.70;;;-1.30;99.90;;;;;;5009618;28;20210;-78
2024/01/17 04:52:16;;;;;;;12.30;7.43;;;-1.30;99.90;;;;;;5014763;28;20195;-76
2024/01/17 04:54:45;;;;;;;12.10;7.77;;;-1.30;99.90;;;;;;5014015;28;20227;-77
2024/01/17 04:57:12;;;;;;;12.50;8.27;;;-1.30;99.90;;;;;;5029677;28;20200;-77
2024/01/17 04:59:39;;;;;;;13.77;8.57;;;-1.20;99.90;;;;;;5005838;28;20210;-78
2024/01/17 05:02:07;;;;;;;13.13;8.73;;;-1.20;99.90;;;;;;5024465;28;20216;-76
2024/01/17 05:04:34;;;;;;;11.60;8.07;;;-1.10;99.90;;;;;;5033019;28;20199;-77
2024/01/17 05:07:02;;;;;;;11.10;7.73;;;-1.10;99.90;;;;;;5011080;28;20203;-78
2024/01/17 05:09:29;;;;;;;11.20;7.93;;;-1.10;99.90;;;;;;5021219;28;20212;-77
2024/01/17 05:11:58;;;;;;;13.40;8.37;;;-1.10;99.90;;;;;;5012208;28;20204;-77
2024/01/17 05:14:25;;;;;;;13.97;8.43;;;-1.10;99.90;;;;;;5024696;28;20199;-77
2024/01/17 05:16:53;;;;;;;14.77;8.37;;;-1.10;99.90;;;;;;5021281;28;20203;-77
2024/01/17 05:19:20;;;;;;;11.47;8.43;;;-1.20;99.90;;;;;;5006924;28;20195;-77
2024/01/17 05:21:47;;;;;;;15.33;8.43;;;-1.20;99.90;;;;;;5014266;28;20203;-77
2024/01/17 05:24:15;;;;;;;13.73;8.40;;;-1.30;99.90;;;;;;5032661;28;20230;-77
2024/01/17 05:26:43;;;;;;;14.03;8.37;;;-1.20;99.90;;;;;;5019555;28;20215;-76
2024/01/17 05:29:11;;;;;;;13.77;8.50;;;-1.30;99.90;;;;;;5013078;28;20206;-77
2024/01/17 05:31:39;;;;;;;15.10;9.53;;;-1.30;99.90;;;;;;5027739;28;20215;-77
2024/01/17 05:34:06;;;;;;;16.07;8.63;;;-1.30;99.90;;;;;;5012604;28;20196;-77
2024/01/17 05:36:33;;;;;;;11.97;8.03;;;-1.30;99.90;;;;;;5007870;28;20238;-77
2024/01/17 05:39:01;;;;;;;11.67;8.10;;;-1.30;99.90;;;;;;5013734;28;20218;-77
2024/01/17 05:41:28;;;;;;;11.50;8.60;;;-1.40;99.90;;;;;;4999560;28;20199;-77
2024/01/17 05:43:55;;;;;;;12.40;8.07;;;-1.30;99.90;;;;;;5032548;28;20219;-76
2024/01/17 05:46:24;;;;;;;13.37;8.03;;;-1.30;99.90;;;;;;5007670;28;20223;-78
2024/01/17 05:48:52;;;;;;;12.53;8.27;;;-1.20;99.90;;;;;;5014067;28;20199;-79
2024/01/17 05:51:20;;;;;;;16.83;8.83;;;-1.20;99.90;;;;;;5010216;28;20200;-78
2024/01/17 05:53:47;;;;;;;14.43;8.33;;;-1.30;99.90;;;;;;5017843;28;20191;-78
2024/01/17 05:56:14;;;;;;;11.93;7.80;;;-1.30;99.90;;;;;;5031158;28;20714;-78
2024/01/17 05:58:42;;;;;;;10.70;7.27;;;-1.30;99.90;;;;;;5017809;28;20191;-76
2024/01/17 06:01:09;;;;;;;11.97;7.53;;;-1.30;99.90;;;;;;5021760;28;20549;-76
2024/01/17 06:03:38;;;;;;;15.47;8.37;;;-1.40;99.90;;;;;;5014307;28;20218;-76
2024/01/17 06:06:05;;;;;;;13.30;8.40;;;-1.30;99.90;;;;;;5029398;28;20223;-76
2024/01/17 06:08:33;;;;;;;10.27;7.73;;;-1.30;99.90;;;;;;5027749;28;20196;-77
2024/01/17 06:11:01;;;;;;;11.77;7.63;;;-1.40;99.90;;;;;;5031171;28;20199;-76
2024/01/17 06:13:29;;;;;;;13.67;7.40;;;-1.40;99.90;;;;;;4998800;28;20196;-76
2024/01/17 06:15:56;;;;;;;12.40;8.17;;;-1.40;99.90;;;;;;5007101;28;20226;-78
2024/01/17 06:18:24;;;;;;;11.17;8.20;;;-1.40;99.90;;;;;;4999414;28;20206;-78
2024/01/17 06:20:53;;;;;;;13.37;8.13;;;-1.30;99.90;;;;;;5013774;28;20195;-78
2024/01/17 06:23:22;;;;;;;11.30;7.30;;;-1.30;99.90;;;;;;5012559;28;20212;-76
2024/01/17 06:25:50;;;;;;;9.73;7.10;;;-1.20;99.90;;;;;;5031213;28;20228;-77
2024/01/17 06:28:20;;;;;;;11.33;7.77;;;-1.20;99.90;;;;;;5029711;28;20201;-76
2024/01/17 06:30:48;;;;;;;11.87;7.50;;;-1.20;99.90;;;;;;5028391;28;20199;-76
2024/01/17 06:33:17;;;;;;;12.87;7.70;;;-1.10;99.90;;;;;;5013326;28;20211;-76
2024/01/17 06:35:50;;;;;;;12.63;7.90;;;-1.10;99.90;;;;;;4993482;28;20225;-76
2024/01/17 06:38:19;;;;;;;11.80;7.83;;;-1.10;99.90;;;;;;4995986;28;20232;-77
2024/01/17 06:40:46;;;;;;;13.03;7.87;;;-1.10;99.90;;;;;;5013493;28;20671;-76
2024/01/17 06:43:14;;;;;;;11.80;7.17;;;-1.10;99.90;;;;;;5002660;28;20225;-76
2024/01/17 06:45:41;;;;;;;13.97;7.20;;;-1.10;99.90;;;;;;5008740;28;20220;-76
2024/01/17 06:48:09;;;;;;;10.13;6.87;;;-1.20;99.90;;;;;;5009677;28;20211;-76
2024/01/17 06:50:36;;;;;;;9.97;6.90;;;-1.20;99.90;;;;;;5009236;28;20199;-76
2024/01/17 06:53:04;;;;;;;11.17;7.33;;;-1.10;99.90;;;;;;5029055;28;20191;-76
2024/01/17 06:55:33;;;;;;;10.43;7.73;;;-1.20;99.90;;;;;;5030621;28;20212;-76
2024/01/17 06:58:00;;;;;;;8.27;6.60;;;-1.20;99.90;;;;;;5028731;28;20564;-77
2024/01/17 07:00:28;;;;;;;9.90;6.87;;;-1.20;99.90;;;;;;5029873;28;20207;-76
2024/01/17 07:02:55;;;;;;;13.47;7.77;;;-1.10;99.90;;;;;;5026982;28;20564;-78
2024/01/17 07:05:29;;;;;;;13.13;7.37;;;-1.00;99.90;;;;;;5028720;28;20223;-76
2024/01/17 07:07:57;;;;;;;10.33;7.20;;;-1.00;99.90;;;;;;5031408;28;20204;-77
2024/01/17 07:10:24;;;;;;;11.53;7.00;;;-0.90;99.90;;;;;;5029716;28;20240;-76
2024/01/17 07:12:59;;;;;;;12.10;7.30;;;-0.80;99.90;;;;;;5029623;28;20206;-76
2024/01/17 07:15:27;;;;;;;8.10;6.53;;;-0.80;99.90;;;;;;5005092;28;20230;-77
2024/01/17 07:17:54;;;;;;;9.40;6.90;;;-0.70;99.90;;;;;;5019187;28;20206;-77
2024/01/17 07:20:22;;;;;;;11.13;6.60;;;-0.70;99.90;;;;;;5031348;28;20206;-77
2024/01/17 07:22:49;;;;;;;10.70;6.83;;;-0.50;99.90;;;;;;5046907;28;20205;-78
2024/01/17 07:25:17;;;;;;;10.67;7.13;;;-0.60;99.90;;;;;;5029034;28;20237;-78
2024/01/17 07:27:47;;;;;;;11.97;6.77;;;-0.50;99.90;;;;;;5031021;28;20655;-77
2024/01/17 07:30:16;;;;;;;13.33;7.57;;;-0.50;99.90;;;;;;5029876;28;20203;-77
2024/01/17 07:32:44;;;;;;;10.93;7.47;;;-0.50;99.90;;;;;;5037324;28;20677;-77
2024/01/17 07:35:11;;;;;;;13.10;8.27;;;-0.60;99.90;;;;;;4994097;28;20235;-77
2024/01/17 07:37:38;;;;;;;13.20;8.23;;;-0.50;99.90;;;;;;5028688;28;20211;-77
2024/01/17 07:40:09;;;;;;;10.03;7.40;;;-0.60;99.90;;;;;;5016131;28;20202;-77
2024/01/17 07:42:36;;;;;;;12.47;7.27;;;-0.50;99.90;;;;;;5012487;28;20207;-77
2024/01/17 07:45:04;;;;;;;11.90;7.33;;;-0.40;99.90;;;;;;5031599;28;20225;-78
2024/01/17 07:47:35;;;;;;;10.90;7.00;;;-0.30;99.90;;;;;;5033533;28;20210;-77
2024/01/17 07:50:03;;;;;;;8.67;6.53;;;-0.40;99.90;;;;;;5034693;28;20198;-77
2024/01/17 07:52:30;;;;;;;8.97;6.43;;;-0.40;99.90;;;;;;5033399;28;20691;-78
2024/01/17 07:54:58;;;;;;;11.47;6.53;;;-0.40;99.90;;;;;;5028950;28;20213;-77
2024/01/17 07:57:25;;;;;;;10.57;7.43;;;-0.30;99.90;;;;;;5025781;28;20203;-77
2024/01/17 07:59:52;;;;;;;10.43;7.13;;;-0.30;99.90;;;;;;5004320;28;20564;-77
2024/01/17 08:02:20;;;;;;;11.77;7.33;;;-0.20;99.90;;;;;;5039473;28;20541;-77
2024/01/17 08:04:52;;;;;;;10.80;7.73;;;-0.30;99.90;;;;;;5014949;28;20600;-78
2024/01/17 08:07:24;;;;;;;14.20;7.97;;;-0.10;99.90;;;;;;5015765;28;20609;-77
2024/01/17 08:09:52;;;;;;;10.87;7.63;;;-0.20;99.90;;;;;;5003266;28;20212;-78
2024/01/17 08:12:19;;;;;;;10.13;7.73;;;-0.20;99.90;;;;;;5031042;28;20573;-77
2024/01/17 08:14:47;;;;;;;11.87;7.50;;;-0.20;99.90;;;;;;5016326;28;20214;-77
2024/01/17 08:17:14;;;;;;;13.47;8.43;;;-0.30;99.90;;;;;;5014883;28;20200;-77
2024/01/17 08:19:42;;;;;;;12.17;8.37;;;-0.30;99.90;;;;;;5011151;28;20200;-78
2024/01/17 08:22:11;;;;;;;13.73;8.60;;;-0.30;99.90;;;;;;5002090;28;20212;-77
2024/01/17 08:24:38;;;;;;;12.77;7.80;;;-0.20;99.90;;;;;;5023881;28;20213;-77
2024/01/17 08:27:06;;;;;;;10.73;8.43;;;-0.20;99.90;;;;;;5031184;28;20206;-77
2024/01/17 08:29:33;;;;;;;10.90;8.00;;;-0.20;99.90;;;;;;5030156;28;20192;-77
2024/01/17 08:32:00;;;;;;;11.70;8.37;;;0.00;99.90;;;;;;5028068;28;20194;-77
2024/01/17 08:34:28;;;;;;;12.17;9.23;;;0.20;99.90;;;;;;5012718;28;20205;-77
2024/01/17 08:36:58;;;;;;;14.67;9.13;;;0.30;99.90;;;;;;5012246;28;20200;-77
2024/01/17 08:39:27;;;;;;;16.17;8.17;;;0.30;99.90;;;;;;5020996;28;20207;-77
2024/01/17 08:41:55;;;;;;;11.40;8.97;;;0.40;99.90;;;;;;5011726;28;20215;-77
2024/01/17 08:44:23;;;;;;;15.50;9.00;;;0.30;99.90;;;;;;5010472;28;20218;-77
2024/01/17 08:46:51;;;;;;;12.53;8.43;;;0.20;99.90;;;;;;5031616;28;20200;-77
2024/01/17 08:49:20;;;;;;;12.93;8.47;;;0.30;99.90;;;;;;5001022;28;20206;-78
2024/01/17 08:51:48;;;;;;;13.07;8.37;;;0.30;99.90;;;;;;5015611;28;20456;-77
2024/01/17 08:54:15;;;;;;;11.77;9.00;;;0.20;99.90;;;;;;5032259;28;20189;-77
2024/01/17 08:56:44;;;;;;;12.37;8.93;;;0.30;99.90;;;;;;5014887;28;20236;-77
2024/01/17 08:59:12;;;;;;;13.50;9.33;;;0.20;99.90;;;;;;5015264;28;20570;-77
2024/01/17 09:01:39;;;;;;;15.27;10.67;;;0.20;99.90;;;;;;5014697;28;20199;-77
2024/01/17 09:04:06;;;;;;;16.33;10.53;;;0.20;99.90;;;;;;5014774;28;20219;-77
2024/01/17 09:06:34;;;;;;;13.77;10.13;;;0.10;99.90;;;;;;5023193;28;20223;-76
2024/01/17 09:09:03;;;;;;;17.53;11.13;;;0.10;99.90;;;;;;5028468;28;20544;-76
2024/01/17 09:11:31;;;;;;;18.43;10.50;;;0.30;99.90;;;;;;5014511;28;20201;-76
2024/01/17 09:14:00;;;;;;;16.60;10.50;;;0.30;99.90;;;;;;5011625;28;20219;-76
2024/01/17 09:16:27;;;;;;;15.40;10.23;;;0.30;99.90;;;;;;5009188;28;20226;-77
2024/01/17 09:18:55;;;;;;;15.83;11.43;;;0.40;99.90;;;;;;5009169;28;20202;-76
2024/01/17 09:21:22;;;;;;;16.10;10.63;;;0.60;99.90;;;;;;5003709;28;20203;-77
2024/01/17 09:23:50;;;;;;;19.83;11.27;;;0.60;99.90;;;;;;5002028;28;20208;-77
2024/01/17 09:26:17;;;;;;;15.43;10.60;;;0.60;99.90;;;;;;5004748;28;20240;-77
2024/01/17 09:28:45;;;;;;;16.20;10.47;;;0.50;99.90;;;;;;5031262;28;20200;-77
2024/01/17 09:31:14;;;;;;;14.93;10.83;;;0.40;99.90;;;;;;5030207;28;20207;-77
2024/01/17 09:33:41;;;;;;;14.67;11.07;;;0.30;99.90;;;;;;5014998;28;20676;-77
2024/01/17 09:36:09;;;;;;;16.57;10.93;;;0.40;99.90;;;;;;5030065;28;20221;-76
2024/01/17 09:38:36;;;;;;;16.90;10.43;;;0.50;99.90;;;;;;5024555;28;20204;-77
2024/01/17 09:41:05;;;;;;;13.00;9.30;;;0.60;99.90;;;;;;5004803;28;20200;-76
2024/01/17 09:43:32;;;;;;;17.30;10.70;;;0.60;99.90;;;;;;5015989;28;20209;-76
2024/01/17 09:46:02;;;;;;;14.83;11.03;;;0.70;99.90;;;;;;5007698;28;20602;-78
2024/01/17 09:48:31;;;;;;;17.13;9.43;;;0.70;99.90;;;;;;5006721;28;20210;-76
2024/01/17 09:50:58;;;;;;;15.23;9.93;;;0.70;99.90;;;;;;5003821;28;20761;-77
2024/01/17 09:53:30;;;;;;;12.43;9.47;;;0.70;99.90;;;;;;5031487;28;20201;-77
2024/01/17 09:55:59;;;;;;;15.63;10.03;;;0.60;99.90;;;;;;5009086;28;20229;-77
2024/01/17 09:58:30;;;;;;;12.40;8.97;;;0.80;99.90;;;;;;5021373;28;20195;-76
2024/01/17 10:00:59;;;;;;;13.77;9.90;;;0.90;99.90;;;;;;5011418;28;20204;-76
2024/01/17 10:03:29;;;;;;;14.43;10.57;;;0.80;99.90;;;;;;5031343;28;20204;-76
2024/01/17 10:05:59;;;;;;;15.93;10.10;;;1.00;99.90;;;;;;5018089;28;20260;-76
2024/01/17 10:08:27;;;;;;;15.17;10.60;;;1.10;99.90;;;;;;5015128;28;20201;-76
2024/01/17 10:10:54;;;;;;;15.00;9.57;;;1.20;99.90;;;;;;5032035;28;20201;-76
2024/01/17 10:13:22;;;;;;;16.27;9.93;;;1.30;99.90;;;;;;5013590;28;20554;-77
2024/01/17 10:15:49;;;;;;;17.43;10.83;;;1.30;99.90;;;;;;5011773;28;20223;-75
2024/01/17 10:18:17;;;;;;;17.13;10.33;;;1.30;99.90;;;;;;5013642;28;20225;-76
2024/01/17 10:20:44;;;;;;;17.67;10.10;;;1.20;99.90;;;;;;5005486;28;20221;-77
2024/01/17 10:23:14;;;;;;;16.97;10.57;;;1.30;99.90;;;;;;5024421;28;20207;-77
2024/01/17 10:25:42;;;;;;;14.37;10.50;;;1.40;99.90;;;;;;5004738;28;20212;-76
2024/01/17 10:28:11;;;;;;;16.63;10.77;;;1.40;99.90;;;;;;5002470;28;20208;-76
2024/01/17 10:30:39;;;;;;;14.80;10.67;;;1.30;99.90;;;;;;5021605;28;20199;-76
2024/01/17 10:33:08;;;;;;;14.60;10.47;;;1.40;99.90;;;;;;5025209;28;20664;-76
2024/01/17 10:35:35;;;;;;;17.70;12.07;;;1.50;99.90;;;;;;5004917;28;20223;-77
2024/01/17 10:38:04;;;;;;;13.00;10.23;;;1.50;99.90;;;;;;5011550;28;20213;-76
2024/01/17 10:40:33;;;;;;;14.60;10.73;;;1.40;99.90;;;;;;5027425;28;20208;-76
2024/01/17 10:43:09;;;;;;;17.13;10.97;;;1.50;99.90;;;;;;5012027;28;20214;-76
2024/01/17 10:45:38;;;;;;;16.73;10.80;;;1.40;99.90;;;;;;5031090;28;20214;-76
2024/01/17 10:48:06;;;;;;;12.63;9.53;;;1.40;99.90;;;;;;5030693;28;20199;-77
2024/01/17 10:50:33;;;;;;;14.30;10.37;;;1.30;99.90;;;;;;5009642;28;20219;-77
2024/01/17 10:53:04;;;;;;;16.23;10.30;;;1.40;99.90;;;;;;5032839;28;20209;-77
2024/01/17 10:55:36;;;;;;;14.67;10.03;;;1.50;99.90;;;;;;5027166;28;21262;-75
2024/01/17 10:58:09;;;;;;;15.30;10.20;;;1.20;99.90;;;;;;5027318;28;20195;-76
2024/01/17 11:00:39;;;;;;;14.63;10.40;;;1.10;99.90;;;;;;5019570;28;20218;-76
2024/01/17 11:03:09;;;;;;;15.03;10.97;;;1.00;99.90;;;;;;5021454;28;20197;-76
2024/01/17 11:05:46;;;;;;;14.87;10.50;;;1.00;99.90;;;;;;4995815;28;20235;-76
2024/01/17 11:08:15;;;;;;;17.90;10.20;;;1.20;99.90;;;;;;5005176;28;20209;-77
2024/01/17 11:10:45;;;;;;;15.07;10.03;;;1.20;99.90;;;;;;5033097;28;20205;-76
2024/01/17 11:13:15;;;;;;;15.03;10.27;;;1.30;99.90;;;;;;5035209;28;20193;-78
2024/01/17 11:15:44;;;;;;;16.03;10.40;;;1.30;99.90;;;;;;5010618;28;20225;-76
2024/01/17 11:18:13;;;;;;;15.27;10.67;;;1.20;99.90;;;;;;5028090;28;20214;-77
2024/01/17 11:20:42;;;;;;;14.73;9.70;;;1.30;99.90;;;;;;5019722;28;20577;-77
2024/01/17 11:23:14;;;;;;;18.07;10.93;;;1.40;99.90;;;;;;5012582;28;20226;-76
2024/01/17 11:25:52;;;;;;;16.63;10.60;;;1.40;99.90;;;;;;5025897;28;20208;-76
2024/01/17 11:28:21;;;;;;;13.50;10.03;;;1.30;99.90;;;;;;5012493;28;20204;-76
2024/01/17 11:31:05;;;;;;;17.23;9.57;;;1.30;99.90;;;;;;5021856;28;20205;-76
2024/01/17 11:33:33;;;;;;;14.93;9.60;;;1.30;99.90;;;;;;5036850;28;20206;-76
2024/01/17 11:36:01;;;;;;;15.90;9.57;;;1.30;99.90;;;;;;5047594;28;20238;-76
2024/01/17 11:38:32;;;;;;;15.60;10.30;;;1.30;99.90;;;;;;5007132;28;20562;-76
2024/01/17 11:41:05;;;;;;;13.40;10.57;;;1.50;99.90;;;;;;5025133;28;20633;-77
2024/01/17 11:43:38;;;;;;;13.27;9.60;;;1.50;99.90;;;;;;5034395;28;20206;-77
2024/01/17 11:46:08;;;;;;;15.47;9.80;;;1.40;99.90;;;;;;5020514;28;20229;-77
2024/01/17 11:48:38;;;;;;;17.47;9.77;;;1.40;99.90;;;;;;5017032;28;20214;-76
2024/01/17 11:51:15;;;;;;;15.30;9.83;;;1.60;99.90;;;;;;5023622;28;20703;-76
2024/01/17 11:53:43;;;;;;;13.57;10.10;;;1.60;99.90;;;;;;5023754;28;20641;-77
2024/01/17 11:56:38;;;;;;;13.83;9.70;;;1.50;99.90;;;;;;5004335;28;20224;-76
2024/01/17 11:59:09;;;;;;;14.83;9.37;;;1.60;99.90;;;;;;5014380;28;20195;-77
2024/01/17 12:01:41;;;;;;;11.87;8.83;;;1.60;99.90;;;;;;5021207;28;20214;-76
2024/01/17 12:04:11;;;;;;;12.57;8.20;;;1.70;99.90;;;;;;5026642;28;20207;-76
2024/01/17 12:06:39;;;;;;;11.10;8.00;;;1.90;99.90;;;;;;5031467;28;20218;-76
2024/01/17 12:09:08;;;;;;;9.80;7.40;;;1.50;99.90;;;;;;5008593;28;20214;-76
2024/01/17 12:11:35;;;;;;;10.63;7.77;;;1.60;99.90;;;;;;5028605;28;20204;-76
2024/01/17 12:14:04;;;;;;;10.10;7.33;;;1.70;99.90;;;;;;5015615;28;20201;-77
2024/01/17 12:16:31;;;;;;;13.90;8.67;;;1.90;99.90;;;;;;5017299;28;20226;-78
2024/01/17 12:19:00;;;;;;;12.03;8.13;;;1.80;99.90;;;;;;5008077;28;20673;-76
2024/01/17 12:21:27;;;;;;;10.57;7.80;;;1.70;99.90;;;;;;5029100;28;20202;-76
2024/01/17 12:23:57;;;;;;;13.30;8.60;;;1.70;99.90;;;;;;5018889;28;20196;-77
2024/01/17 12:26:24;;;;;;;15.30;8.70;;;1.60;99.90;;;;;;5008668;28;20724;-76
2024/01/17 12:29:05;;;;;;;13.47;8.57;;;1.40;99.90;;;;;;5011048;28;20541;-77
2024/01/17 12:31:34;;;;;;;11.37;8.50;;;1.40;99.90;;;;;;5036583;28;20207;-77
2024/01/17 12:34:01;;;;;;;11.77;7.73;;;1.50;99.90;;;;;;5006941;28;20205;-76
2024/01/17 12:36:30;;;;;;;10.40;8.47;;;1.70;99.90;;;;;;5005698;28;20226;-75
2024/01/17 12:38:57;;;;;;;9.57;8.40;;;1.80;99.90;;;;;;5013457;28;20657;-76
2024/01/17 12:41:25;;;;;;;13.17;8.20;;;1.80;99.90;;;;;;5018302;28;20197;-76
2024/01/17 12:43:52;;;;;;;10.73;7.90;;;1.90;99.90;;;;;;5008726;28;20206;-76
2024/01/17 12:46:20;;;;;;;12.17;8.13;;;1.90;99.90;;;;;;5015800;28;20236;-76